KRBG

Roseburg Regional Airport

Roseburg, Oregon, USA
METAR KRBG 182053Z AUTO 03007KT 360V070 10SM CLR 29/06 A3010 RMK AO2 SLP190 T02940056 58021
Observed Flight Rules
Aug-18 @ 20:53 UTC (an hour ago) Visual Flight Rules
Wind Visibility Clouds
30° at 7 knots 10 miles
  • Clear skies
Temperatures Readings
Current 29°C / 84°F
Dewpoint 6°C / 43°F
Humidity 23%
Altimeter 30.1" Hg
Pressure 1019 hPa
Elevation 154
METAR KRBG 182053Z AUTO 03007KT 360V070 10SM CLR 29/06 A3010 RMK AO2 SLP190 T02940056 58021
Observed Flight Rules
Aug-18 @ 20:53 UTC
(an hour ago)
VFR
Wind Visibility
30° at 7 knots 10 miles
Clouds
  • Clear skies
Temperature Dewpoint
29°C / 84°F 6°C / 43°F
Humidity Altimeter Pressure
23% 30.1" Hg 1019 hPa